Terminal Aerodrome Forecast
Issued by NWS Central Illinois

Home | Current Version | Previous Version | Text Only | Print | Product List | Glossary On
Versions: 1 2 3 4 5 6 7 8 9 10 11 12 13 14 15 16 17
778
FTUS43 KILX 101146
TAFSPI
TAF
KSPI 101146Z 1012/1112 VRB03KT P6SM BKN060
     FM101700 16008KT P6SM BKN050
     FM110300 15010KT P6SM OVC080=

USA.gov is the U.S. government's official web portal to all federal, state and local government web resources and services.